Laguepe — 9HAI9 — position and weather

sailwx.info

Track history (hours):
 
Tides and Currents Weather Stations Pressure Air Temp Water Temp Dewpoint Dewpoint Depression Visibility Wind Speed Wind Dir Waves Ship Positions

Laguepe

Last reported at 2017-Dec-11 12:58 UTC. Time now 2017-Dec-12 10:19 UTC.
Position N 44°27' E 030°13'.

Length 81 m; draft 2.8 m.

Type: Cargo ship. MMSI: 256681000.

Date/timePositionNaut miles runAvg speedWind from/ knotsBaromVisibWave heightAir tempDewpointWater temp
2017-Dec-11 12:58N 44°27' E 030°13'3 6.4
2017-Dec-11 12:30N 44°30' E 030°14'4 5.9
2017-Dec-11 11:51N 44°34' E 030°15'109 6.1
2017-Dec-10 17:57N 46°19' E 030°55'4 7.4
2017-Dec-10 17:24N 46°23' E 030°55'3 7.5
2017-Dec-10 17:00N 46°26' E 030°55'4 7.5
2017-Dec-10 16:31N 46°30' E 030°55'28 6.0
2017-Dec-10 11:54N 46°35' E 031°35'3 7.0
2017-Dec-10 11:29N 46°35' E 031°39'3 6.4
2017-Dec-10 11:01N 46°36' E 031°44'3 6.7
2017-Dec-10 10:31N 46°36' E 031°48'3 6.9
2017-Dec-10 10:01N 46°34' E 031°53'3 7.0
2017-Dec-10 09:31N 46°33' E 031°58'3 7.0
2017-Dec-10 09:01N 46°32' E 032°03'3 6.8
2017-Dec-10 08:30N 46°32' E 032°08'4 6.9
2017-Dec-10 07:58N 46°33' E 032°13'  
Track history (hours):
 
Tides and Currents Weather Stations Pressure Air Temp Water Temp Dewpoint Dewpoint Depression Visibility Wind Speed Wind Dir Waves Ship Positions

Laguepe

Last reported at 2017-Dec-11 12:58 UTC. Time now 2017-Dec-12 10:19 UTC.
Position N 44°27' E 030°13'.

Length 81 m; draft 2.8 m.

Type: Cargo ship. MMSI: 256681000.

Date/timePositionNaut miles runAvg speedWind from/ knotsBaromVisibWave heightAir tempDewpointWater temp
2017-Dec-11 12:58N 44°27' E 030°13'3 6.4
2017-Dec-11 12:30N 44°30' E 030°14'4 5.9
2017-Dec-11 11:51N 44°34' E 030°15'109 6.1
2017-Dec-10 17:57N 46°19' E 030°55'4 7.4
2017-Dec-10 17:24N 46°23' E 030°55'3 7.5
2017-Dec-10 17:00N 46°26' E 030°55'4 7.5
2017-Dec-10 16:31N 46°30' E 030°55'28 6.0
2017-Dec-10 11:54N 46°35' E 031°35'3 7.0
2017-Dec-10 11:29N 46°35' E 031°39'3 6.4
2017-Dec-10 11:01N 46°36' E 031°44'3 6.7
2017-Dec-10 10:31N 46°36' E 031°48'3 6.9
2017-Dec-10 10:01N 46°34' E 031°53'3 7.0
2017-Dec-10 09:31N 46°33' E 031°58'3 7.0
2017-Dec-10 09:01N 46°32' E 032°03'3 6.8
2017-Dec-10 08:30N 46°32' E 032°08'4 6.9
2017-Dec-10 07:58N 46°33' E 032°13'  

Dump ship's entire track history